sensor_id;sensor_type;location;lat;lon;timestamp;P1;durP1;ratioP1;P2;durP2;ratioP2
1651;SDS011;823;49.028;8.454;2023-05-02T00:00:08;11.27;;;7.17;;
1651;SDS011;823;49.028;8.454;2023-05-02T00:05:09;11.20;;;6.80;;
1651;SDS011;823;49.028;8.454;2023-05-02T00:10:10;11.57;;;6.60;;
1651;SDS011;823;49.028;8.454;2023-05-02T00:15:10;7.67;;;5.73;;
1651;SDS011;823;49.028;8.454;2023-05-02T00:20:11;11.50;;;6.03;;
1651;SDS011;823;49.028;8.454;2023-05-02T00:25:11;10.33;;;6.33;;
1651;SDS011;823;49.028;8.454;2023-05-02T00:30:16;10.60;;;5.60;;
1651;SDS011;823;49.028;8.454;2023-05-02T00:35:17;11.87;;;7.00;;
1651;SDS011;823;49.028;8.454;2023-05-02T00:40:17;11.50;;;7.00;;
1651;SDS011;823;49.028;8.454;2023-05-02T00:45:18;8.43;;;5.30;;
1651;SDS011;823;49.028;8.454;2023-05-02T00:50:18;15.40;;;6.50;;
1651;SDS011;823;49.028;8.454;2023-05-02T00:55:19;8.30;;;6.10;;
1651;SDS011;823;49.028;8.454;2023-05-02T01:00:19;9.17;;;6.20;;
1651;SDS011;823;49.028;8.454;2023-05-02T01:05:29;11.43;;;6.60;;
1651;SDS011;823;49.028;8.454;2023-05-02T01:15:58;11.20;;;6.10;;
1651;SDS011;823;49.028;8.454;2023-05-02T01:21:03;8.93;;;6.37;;
1651;SDS011;823;49.028;8.454;2023-05-02T01:26:19;11.47;;;7.03;;
1651;SDS011;823;49.028;8.454;2023-05-02T01:31:48;11.00;;;6.10;;
1651;SDS011;823;49.028;8.454;2023-05-02T01:36:50;9.00;;;6.33;;
1651;SDS011;823;49.028;8.454;2023-05-02T01:41:52;10.93;;;7.30;;
1651;SDS011;823;49.028;8.454;2023-05-02T01:46:55;11.27;;;7.10;;
1651;SDS011;823;49.028;8.454;2023-05-02T01:51:55;11.70;;;5.97;;
1651;SDS011;823;49.028;8.454;2023-05-02T01:56:59;8.93;;;6.70;;
1651;SDS011;823;49.028;8.454;2023-05-02T02:02:03;8.83;;;6.17;;
1651;SDS011;823;49.028;8.454;2023-05-02T02:07:06;9.37;;;6.10;;
1651;SDS011;823;49.028;8.454;2023-05-02T02:12:13;9.53;;;6.33;;
1651;SDS011;823;49.028;8.454;2023-05-02T02:17:29;15.93;;;7.20;;
1651;SDS011;823;49.028;8.454;2023-05-02T02:22:37;8.23;;;6.00;;
1651;SDS011;823;49.028;8.454;2023-05-02T02:27:39;12.80;;;6.77;;
1651;SDS011;823;49.028;8.454;2023-05-02T02:32:40;9.87;;;6.63;;
1651;SDS011;823;49.028;8.454;2023-05-02T02:37:44;9.30;;;6.50;;
1651;SDS011;823;49.028;8.454;2023-05-02T02:42:51;13.23;;;7.13;;
1651;SDS011;823;49.028;8.454;2023-05-02T02:53:51;13.03;;;8.60;;
1651;SDS011;823;49.028;8.454;2023-05-02T02:58:57;10.20;;;7.80;;
1651;SDS011;823;49.028;8.454;2023-05-02T03:04:03;15.07;;;7.97;;
1651;SDS011;823;49.028;8.454;2023-05-02T03:09:13;12.90;;;7.47;;
1651;SDS011;823;49.028;8.454;2023-05-02T03:14:16;11.87;;;7.00;;
1651;SDS011;823;49.028;8.454;2023-05-02T03:19:17;10.85;;;7.40;;
1651;SDS011;823;49.028;8.454;2023-05-02T03:24:17;13.03;;;6.70;;
1651;SDS011;823;49.028;8.454;2023-05-02T03:29:17;15.37;;;7.83;;
1651;SDS011;823;49.028;8.454;2023-05-02T03:34:18;10.77;;;7.13;;
1651;SDS011;823;49.028;8.454;2023-05-02T03:39:20;12.23;;;6.83;;
1651;SDS011;823;49.028;8.454;2023-05-02T03:44:21;14.47;;;7.60;;
1651;SDS011;823;49.028;8.454;2023-05-02T03:49:21;12.00;;;7.67;;
1651;SDS011;823;49.028;8.454;2023-05-02T03:54:21;10.48;;;7.10;;
1651;SDS011;823;49.028;8.454;2023-05-02T03:59:22;11.10;;;7.50;;
1651;SDS011;823;49.028;8.454;2023-05-02T04:04:23;20.07;;;7.90;;
1651;SDS011;823;49.028;8.454;2023-05-02T04:09:23;15.50;;;7.82;;
1651;SDS011;823;49.028;8.454;2023-05-02T04:14:24;12.37;;;8.00;;
1651;SDS011;823;49.028;8.454;2023-05-02T04:19:24;11.70;;;8.10;;
1651;SDS011;823;49.028;8.454;2023-05-02T04:24:24;15.53;;;8.60;;
1651;SDS011;823;49.028;8.454;2023-05-02T04:29:25;13.98;;;8.15;;
1651;SDS011;823;49.028;8.454;2023-05-02T04:34:25;10.80;;;7.53;;
1651;SDS011;823;49.028;8.454;2023-05-02T04:39:27;13.00;;;8.03;;
1651;SDS011;823;49.028;8.454;2023-05-02T04:44:27;12.23;;;7.53;;
1651;SDS011;823;49.028;8.454;2023-05-02T04:49:27;13.73;;;7.50;;
1651;SDS011;823;49.028;8.454;2023-05-02T04:54:28;11.90;;;8.03;;
1651;SDS011;823;49.028;8.454;2023-05-02T04:59:28;13.98;;;8.70;;
1651;SDS011;823;49.028;8.454;2023-05-02T05:04:29;17.43;;;8.73;;
1651;SDS011;823;49.028;8.454;2023-05-02T05:09:29;14.40;;;9.57;;
1651;SDS011;823;49.028;8.454;2023-05-02T05:14:30;14.50;;;8.60;;
1651;SDS011;823;49.028;8.454;2023-05-02T05:19:30;12.30;;;8.80;;
1651;SDS011;823;49.028;8.454;2023-05-02T05:24:31;14.87;;;8.70;;
1651;SDS011;823;49.028;8.454;2023-05-02T05:29:31;15.43;;;9.57;;
1651;SDS011;823;49.028;8.454;2023-05-02T05:34:32;14.83;;;9.40;;
1651;SDS011;823;49.028;8.454;2023-05-02T05:39:32;17.73;;;10.18;;
1651;SDS011;823;49.028;8.454;2023-05-02T05:44:32;15.88;;;9.32;;
1651;SDS011;823;49.028;8.454;2023-05-02T05:49:33;13.43;;;8.80;;
1651;SDS011;823;49.028;8.454;2023-05-02T05:54:35;15.57;;;9.70;;
1651;SDS011;823;49.028;8.454;2023-05-02T05:59:35;14.63;;;8.40;;
1651;SDS011;823;49.028;8.454;2023-05-02T06:04:36;14.67;;;8.97;;
1651;SDS011;823;49.028;8.454;2023-05-02T06:09:36;15.17;;;9.50;;
1651;SDS011;823;49.028;8.454;2023-05-02T06:14:36;14.30;;;7.63;;
1651;SDS011;823;49.028;8.454;2023-05-02T06:19:37;14.35;;;8.27;;
1651;SDS011;823;49.028;8.454;2023-05-02T06:24:37;12.52;;;8.00;;
1651;SDS011;823;49.028;8.454;2023-05-02T06:29:37;16.52;;;9.32;;
1651;SDS011;823;49.028;8.454;2023-05-02T06:34:37;12.95;;;8.32;;
1651;SDS011;823;49.028;8.454;2023-05-02T06:39:38;22.13;;;8.70;;
1651;SDS011;823;49.028;8.454;2023-05-02T06:44:38;10.63;;;7.50;;
1651;SDS011;823;49.028;8.454;2023-05-02T06:49:38;13.97;;;8.90;;
1651;SDS011;823;49.028;8.454;2023-05-02T06:54:39;13.73;;;8.10;;
1651;SDS011;823;49.028;8.454;2023-05-02T06:59:41;12.83;;;7.87;;
1651;SDS011;823;49.028;8.454;2023-05-02T07:04:42;14.20;;;8.10;;
1651;SDS011;823;49.028;8.454;2023-05-02T07:09:42;16.02;;;9.43;;
1651;SDS011;823;49.028;8.454;2023-05-02T07:14:42;31.40;;;14.68;;
1651;SDS011;823;49.028;8.454;2023-05-02T07:19:45;29.53;;;15.87;;
1651;SDS011;823;49.028;8.454;2023-05-02T07:24:46;32.53;;;17.17;;
1651;SDS011;823;49.028;8.454;2023-05-02T07:29:46;32.67;;;17.90;;
1651;SDS011;823;49.028;8.454;2023-05-02T07:34:47;36.65;;;18.55;;
1651;SDS011;823;49.028;8.454;2023-05-02T07:39:47;37.00;;;17.50;;
1651;SDS011;823;49.028;8.454;2023-05-02T07:44:48;40.87;;;18.03;;
1651;SDS011;823;49.028;8.454;2023-05-02T07:49:52;74.97;;;24.00;;
1651;SDS011;823;49.028;8.454;2023-05-02T07:54:53;41.00;;;20.10;;
1651;SDS011;823;49.028;8.454;2023-05-02T07:59:53;41.60;;;20.80;;
1651;SDS011;823;49.028;8.454;2023-05-02T08:04:56;39.53;;;20.90;;
1651;SDS011;823;49.028;8.454;2023-05-02T08:09:56;53.50;;;22.63;;
1651;SDS011;823;49.028;8.454;2023-05-02T08:14:56;53.70;;;24.70;;
1651;SDS011;823;49.028;8.454;2023-05-02T08:19:57;55.80;;;22.92;;
1651;SDS011;823;49.028;8.454;2023-05-02T08:24:57;56.60;;;24.63;;
1651;SDS011;823;49.028;8.454;2023-05-02T08:29:57;52.10;;;23.47;;
1651;SDS011;823;49.028;8.454;2023-05-02T08:34:58;55.33;;;24.02;;
1651;SDS011;823;49.028;8.454;2023-05-02T08:39:59;54.23;;;23.87;;
1651;SDS011;823;49.028;8.454;2023-05-02T08:44:59;56.87;;;24.70;;
1651;SDS011;823;49.028;8.454;2023-05-02T08:49:59;51.70;;;25.77;;
1651;SDS011;823;49.028;8.454;2023-05-02T08:55:02;49.00;;;24.60;;
1651;SDS011;823;49.028;8.454;2023-05-02T09:00:03;51.33;;;24.43;;
1651;SDS011;823;49.028;8.454;2023-05-02T09:05:05;49.33;;;23.53;;
1651;SDS011;823;49.028;8.454;2023-05-02T09:10:06;55.17;;;26.37;;
1651;SDS011;823;49.028;8.454;2023-05-02T09:15:08;49.00;;;24.17;;
1651;SDS011;823;49.028;8.454;2023-05-02T09:20:14;48.03;;;23.87;;
1651;SDS011;823;49.028;8.454;2023-05-02T09:25:15;52.40;;;25.73;;
1651;SDS011;823;49.028;8.454;2023-05-02T09:30:19;50.37;;;24.90;;
1651;SDS011;823;49.028;8.454;2023-05-02T09:35:20;52.43;;;25.27;;
1651;SDS011;823;49.028;8.454;2023-05-02T09:40:23;48.43;;;24.70;;
1651;SDS011;823;49.028;8.454;2023-05-02T09:45:25;45.20;;;23.13;;
1651;SDS011;823;49.028;8.454;2023-05-02T09:50:32;52.77;;;25.23;;
1651;SDS011;823;49.028;8.454;2023-05-02T09:55:36;48.40;;;22.90;;
1651;SDS011;823;49.028;8.454;2023-05-02T10:00:40;45.00;;;23.90;;
1651;SDS011;823;49.028;8.454;2023-05-02T10:05:43;44.77;;;22.53;;
1651;SDS011;823;49.028;8.454;2023-05-02T10:10:46;44.50;;;22.77;;
1651;SDS011;823;49.028;8.454;2023-05-02T10:16:01;39.70;;;21.40;;
1651;SDS011;823;49.028;8.454;2023-05-02T10:21:45;50.10;;;19.70;;
1651;SDS011;823;49.028;8.454;2023-05-02T10:26:26;44.07;;;18.47;;
1651;SDS011;823;49.028;8.454;2023-05-02T10:31:31;38.50;;;18.10;;
1651;SDS011;823;49.028;8.454;2023-05-02T10:36:33;38.57;;;19.97;;
1651;SDS011;823;49.028;8.454;2023-05-02T10:41:33;49.33;;;21.75;;
1651;SDS011;823;49.028;8.454;2023-05-02T10:46:35;40.27;;;20.70;;
1651;SDS011;823;49.028;8.454;2023-05-02T10:51:37;35.90;;;19.10;;
1651;SDS011;823;49.028;8.454;2023-05-02T10:56:59;40.30;;;19.87;;
1651;SDS011;823;49.028;8.454;2023-05-02T11:02:00;37.47;;;19.27;;
1651;SDS011;823;49.028;8.454;2023-05-02T11:07:22;42.27;;;19.50;;
1651;SDS011;823;49.028;8.454;2023-05-02T11:33:35;24.37;;;12.80;;
1651;SDS011;823;49.028;8.454;2023-05-02T11:38:36;24.90;;;11.90;;
1651;SDS011;823;49.028;8.454;2023-05-02T11:43:37;24.57;;;11.77;;
1651;SDS011;823;49.028;8.454;2023-05-02T11:48:38;195.10;;;16.77;;
1651;SDS011;823;49.028;8.454;2023-05-02T11:53:39;19.93;;;10.90;;
1651;SDS011;823;49.028;8.454;2023-05-02T11:58:40;22.30;;;10.33;;
1651;SDS011;823;49.028;8.454;2023-05-02T12:03:40;24.70;;;11.97;;
1651;SDS011;823;49.028;8.454;2023-05-02T12:08:41;21.30;;;11.57;;
1651;SDS011;823;49.028;8.454;2023-05-02T12:13:47;20.10;;;9.57;;
1651;SDS011;823;49.028;8.454;2023-05-02T12:18:48;22.30;;;9.77;;
1651;SDS011;823;49.028;8.454;2023-05-02T12:23:49;22.40;;;8.60;;
1651;SDS011;823;49.028;8.454;2023-05-02T12:28:50;16.87;;;8.90;;
1651;SDS011;823;49.028;8.454;2023-05-02T12:33:51;13.93;;;7.70;;
1651;SDS011;823;49.028;8.454;2023-05-02T12:38:57;12.70;;;6.93;;
1651;SDS011;823;49.028;8.454;2023-05-02T12:44:01;25.13;;;8.50;;
1651;SDS011;823;49.028;8.454;2023-05-02T12:49:03;19.20;;;8.90;;
1651;SDS011;823;49.028;8.454;2023-05-02T12:54:05;13.40;;;6.90;;
1651;SDS011;823;49.028;8.454;2023-05-02T12:59:06;12.23;;;5.97;;
1651;SDS011;823;49.028;8.454;2023-05-02T13:04:07;11.20;;;5.53;;
1651;SDS011;823;49.028;8.454;2023-05-02T13:09:07;10.57;;;5.57;;
1651;SDS011;823;49.028;8.454;2023-05-02T13:14:07;10.50;;;5.60;;
1651;SDS011;823;49.028;8.454;2023-05-02T13:19:10;17.33;;;8.13;;
1651;SDS011;823;49.028;8.454;2023-05-02T13:24:10;17.03;;;7.10;;
1651;SDS011;823;49.028;8.454;2023-05-02T13:29:12;12.40;;;6.77;;
1651;SDS011;823;49.028;8.454;2023-05-02T13:34:12;12.17;;;5.97;;
1651;SDS011;823;49.028;8.454;2023-05-02T13:39:12;12.83;;;5.73;;
1651;SDS011;823;49.028;8.454;2023-05-02T13:44:13;6.60;;;3.45;;
1651;SDS011;823;49.028;8.454;2023-05-02T13:49:13;9.00;;;4.80;;
1651;SDS011;823;49.028;8.454;2023-05-02T13:54:13;8.83;;;4.67;;
1651;SDS011;823;49.028;8.454;2023-05-02T13:59:14;7.47;;;4.00;;
1651;SDS011;823;49.028;8.454;2023-05-02T14:04:14;8.10;;;4.20;;
1651;SDS011;823;49.028;8.454;2023-05-02T14:09:15;6.60;;;3.77;;
1651;SDS011;823;49.028;8.454;2023-05-02T14:14:15;5.77;;;3.17;;
1651;SDS011;823;49.028;8.454;2023-05-02T14:19:16;6.40;;;3.77;;
1651;SDS011;823;49.028;8.454;2023-05-02T14:24:17;8.33;;;3.87;;
1651;SDS011;823;49.028;8.454;2023-05-02T14:29:18;7.57;;;3.40;;
1651;SDS011;823;49.028;8.454;2023-05-02T14:34:19;7.13;;;2.90;;
1651;SDS011;823;49.028;8.454;2023-05-02T14:39:20;4.00;;;2.10;;
1651;SDS011;823;49.028;8.454;2023-05-02T14:44:21;4.87;;;2.50;;
1651;SDS011;823;49.028;8.454;2023-05-02T14:49:21;6.20;;;3.53;;
1651;SDS011;823;49.028;8.454;2023-05-02T14:54:26;7.00;;;3.50;;
1651;SDS011;823;49.028;8.454;2023-05-02T14:59:28;4.23;;;2.50;;
1651;SDS011;823;49.028;8.454;2023-05-02T15:04:29;4.67;;;2.30;;
1651;SDS011;823;49.028;8.454;2023-05-02T15:09:30;5.70;;;2.63;;
1651;SDS011;823;49.028;8.454;2023-05-02T15:14:30;5.07;;;2.77;;
1651;SDS011;823;49.028;8.454;2023-05-02T15:19:31;3.93;;;2.23;;
1651;SDS011;823;49.028;8.454;2023-05-02T15:24:31;2.53;;;1.70;;
1651;SDS011;823;49.028;8.454;2023-05-02T15:29:32;3.20;;;1.90;;
1651;SDS011;823;49.028;8.454;2023-05-02T15:34:32;7.40;;;2.73;;
1651;SDS011;823;49.028;8.454;2023-05-02T15:39:32;6.57;;;3.90;;
1651;SDS011;823;49.028;8.454;2023-05-02T15:44:36;8.18;;;3.03;;
1651;SDS011;823;49.028;8.454;2023-05-02T15:49:36;6.27;;;2.50;;
1651;SDS011;823;49.028;8.454;2023-05-02T15:54:36;2.33;;;1.40;;
1651;SDS011;823;49.028;8.454;2023-05-02T15:59:38;3.63;;;1.83;;
1651;SDS011;823;49.028;8.454;2023-05-02T16:04:38;8.37;;;1.77;;
1651;SDS011;823;49.028;8.454;2023-05-02T16:09:38;4.93;;;2.13;;
1651;SDS011;823;49.028;8.454;2023-05-02T16:14:40;3.50;;;2.00;;
1651;SDS011;823;49.028;8.454;2023-05-02T16:19:41;4.23;;;2.13;;
1651;SDS011;823;49.028;8.454;2023-05-02T16:24:41;8.13;;;2.75;;
1651;SDS011;823;49.028;8.454;2023-05-02T16:29:41;9.43;;;3.70;;
1651;SDS011;823;49.028;8.454;2023-05-02T16:34:42;5.70;;;3.17;;
1651;SDS011;823;49.028;8.454;2023-05-02T16:39:42;7.67;;;3.20;;
1651;SDS011;823;49.028;8.454;2023-05-02T16:44:42;5.93;;;3.40;;
1651;SDS011;823;49.028;8.454;2023-05-02T16:49:43;7.73;;;3.37;;
1651;SDS011;823;49.028;8.454;2023-05-02T16:54:44;6.40;;;3.40;;
1651;SDS011;823;49.028;8.454;2023-05-02T16:59:44;5.97;;;3.15;;
1651;SDS011;823;49.028;8.454;2023-05-02T17:04:46;6.43;;;2.63;;
1651;SDS011;823;49.028;8.454;2023-05-02T17:09:47;5.27;;;2.10;;
1651;SDS011;823;49.028;8.454;2023-05-02T17:14:47;5.70;;;2.20;;
1651;SDS011;823;49.028;8.454;2023-05-02T17:19:48;5.73;;;2.17;;
1651;SDS011;823;49.028;8.454;2023-05-02T17:24:48;3.20;;;2.20;;
1651;SDS011;823;49.028;8.454;2023-05-02T17:29:51;3.43;;;2.03;;
1651;SDS011;823;49.028;8.454;2023-05-02T17:34:52;3.80;;;1.93;;
1651;SDS011;823;49.028;8.454;2023-05-02T17:39:52;4.73;;;1.97;;
1651;SDS011;823;49.028;8.454;2023-05-02T17:44:53;3.33;;;1.70;;
1651;SDS011;823;49.028;8.454;2023-05-02T17:49:53;3.30;;;2.07;;
1651;SDS011;823;49.028;8.454;2023-05-02T17:54:53;13.65;;;2.58;;
1651;SDS011;823;49.028;8.454;2023-05-02T17:59:54;5.00;;;3.10;;
1651;SDS011;823;49.028;8.454;2023-05-02T18:04:58;5.70;;;2.23;;
1651;SDS011;823;49.028;8.454;2023-05-02T18:10:00;4.33;;;2.37;;
1651;SDS011;823;49.028;8.454;2023-05-02T18:15:03;4.03;;;2.50;;
1651;SDS011;823;49.028;8.454;2023-05-02T18:20:04;5.23;;;2.63;;
1651;SDS011;823;49.028;8.454;2023-05-02T18:25:06;5.43;;;2.50;;
1651;SDS011;823;49.028;8.454;2023-05-02T18:30:07;7.07;;;2.87;;
1651;SDS011;823;49.028;8.454;2023-05-02T18:35:08;6.27;;;3.00;;
1651;SDS011;823;49.028;8.454;2023-05-02T18:40:10;4.00;;;2.60;;
1651;SDS011;823;49.028;8.454;2023-05-02T18:45:11;6.50;;;3.10;;
1651;SDS011;823;49.028;8.454;2023-05-02T18:50:11;9.35;;;3.03;;
1651;SDS011;823;49.028;8.454;2023-05-02T18:55:12;7.17;;;3.10;;
1651;SDS011;823;49.028;8.454;2023-05-02T19:00:12;7.47;;;2.90;;
1651;SDS011;823;49.028;8.454;2023-05-02T19:05:13;6.77;;;4.00;;
1651;SDS011;823;49.028;8.454;2023-05-02T19:10:14;7.33;;;3.53;;
1651;SDS011;823;49.028;8.454;2023-05-02T19:15:14;17.10;;;4.70;;
1651;SDS011;823;49.028;8.454;2023-05-02T19:20:15;8.27;;;4.67;;
1651;SDS011;823;49.028;8.454;2023-05-02T19:25:15;8.37;;;3.87;;
1651;SDS011;823;49.028;8.454;2023-05-02T19:30:16;7.23;;;3.80;;
1651;SDS011;823;49.028;8.454;2023-05-02T19:35:17;6.47;;;3.87;;
1651;SDS011;823;49.028;8.454;2023-05-02T19:40:17;7.10;;;4.07;;
1651;SDS011;823;49.028;8.454;2023-05-02T19:45:17;10.73;;;4.57;;
1651;SDS011;823;49.028;8.454;2023-05-02T19:50:18;9.55;;;5.65;;
1651;SDS011;823;49.028;8.454;2023-05-02T19:55:18;7.57;;;4.60;;
1651;SDS011;823;49.028;8.454;2023-05-02T20:00:19;9.43;;;3.97;;
1651;SDS011;823;49.028;8.454;2023-05-02T20:05:20;6.47;;;4.17;;
1651;SDS011;823;49.028;8.454;2023-05-02T20:10:20;8.20;;;4.60;;
1651;SDS011;823;49.028;8.454;2023-05-02T20:15:21;8.03;;;4.80;;
1651;SDS011;823;49.028;8.454;2023-05-02T20:20:22;7.20;;;4.83;;
1651;SDS011;823;49.028;8.454;2023-05-02T20:25:22;8.77;;;4.00;;
1651;SDS011;823;49.028;8.454;2023-05-02T20:30:23;10.87;;;4.73;;
1651;SDS011;823;49.028;8.454;2023-05-02T20:35:23;11.00;;;4.93;;
1651;SDS011;823;49.028;8.454;2023-05-02T20:40:25;7.70;;;4.00;;
1651;SDS011;823;49.028;8.454;2023-05-02T20:45:26;6.90;;;4.23;;
1651;SDS011;823;49.028;8.454;2023-05-02T20:50:27;14.00;;;5.23;;
1651;SDS011;823;49.028;8.454;2023-05-02T20:55:27;5.83;;;3.67;;
1651;SDS011;823;49.028;8.454;2023-05-02T21:00:28;5.73;;;3.77;;
1651;SDS011;823;49.028;8.454;2023-05-02T21:05:28;6.00;;;3.63;;
1651;SDS011;823;49.028;8.454;2023-05-02T21:10:29;7.40;;;4.80;;
1651;SDS011;823;49.028;8.454;2023-05-02T21:15:33;7.13;;;4.97;;
1651;SDS011;823;49.028;8.454;2023-05-02T21:20:33;9.57;;;4.20;;
1651;SDS011;823;49.028;8.454;2023-05-02T21:25:34;9.17;;;4.60;;
1651;SDS011;823;49.028;8.454;2023-05-02T21:30:35;8.63;;;4.00;;
1651;SDS011;823;49.028;8.454;2023-05-02T21:35:35;7.40;;;4.20;;
1651;SDS011;823;49.028;8.454;2023-05-02T21:40:36;6.17;;;3.50;;
1651;SDS011;823;49.028;8.454;2023-05-02T21:45:44;8.57;;;3.77;;
1651;SDS011;823;49.028;8.454;2023-05-02T21:50:44;8.03;;;4.03;;
1651;SDS011;823;49.028;8.454;2023-05-02T21:55:45;9.90;;;4.87;;
1651;SDS011;823;49.028;8.454;2023-05-02T22:00:45;7.15;;;4.38;;
1651;SDS011;823;49.028;8.454;2023-05-02T22:05:47;11.90;;;5.50;;
1651;SDS011;823;49.028;8.454;2023-05-02T22:10:48;10.47;;;4.53;;
1651;SDS011;823;49.028;8.454;2023-05-02T22:15:49;7.20;;;4.30;;
1651;SDS011;823;49.028;8.454;2023-05-02T22:20:49;9.93;;;4.30;;
1651;SDS011;823;49.028;8.454;2023-05-02T22:25:50;6.55;;;4.22;;
1651;SDS011;823;49.028;8.454;2023-05-02T22:30:50;8.47;;;4.17;;
1651;SDS011;823;49.028;8.454;2023-05-02T22:35:50;7.40;;;4.38;;
1651;SDS011;823;49.028;8.454;2023-05-02T22:40:51;7.83;;;3.87;;
1651;SDS011;823;49.028;8.454;2023-05-02T22:45:51;8.97;;;5.10;;
1651;SDS011;823;49.028;8.454;2023-05-02T22:50:51;12.53;;;4.93;;
1651;SDS011;823;49.028;8.454;2023-05-02T22:55:52;8.13;;;4.70;;
1651;SDS011;823;49.028;8.454;2023-05-02T23:00:52;8.25;;;4.68;;
1651;SDS011;823;49.028;8.454;2023-05-02T23:05:53;7.83;;;4.33;;
1651;SDS011;823;49.028;8.454;2023-05-02T23:10:53;10.93;;;5.43;;
1651;SDS011;823;49.028;8.454;2023-05-02T23:15:54;7.70;;;4.40;;
1651;SDS011;823;49.028;8.454;2023-05-02T23:20:54;8.63;;;4.60;;
1651;SDS011;823;49.028;8.454;2023-05-02T23:25:54;7.97;;;4.40;;
1651;SDS011;823;49.028;8.454;2023-05-02T23:30:55;10.00;;;5.20;;
1651;SDS011;823;49.028;8.454;2023-05-02T23:35:56;13.03;;;4.37;;
1651;SDS011;823;49.028;8.454;2023-05-02T23:40:56;9.60;;;5.63;;
1651;SDS011;823;49.028;8.454;2023-05-02T23:45:57;14.10;;;5.07;;
1651;SDS011;823;49.028;8.454;2023-05-02T23:50:57;11.83;;;5.30;;
1651;SDS011;823;49.028;8.454;2023-05-02T23:55:58;10.47;;;5.07;;
